sensor_id;sensor_type;location;lat;lon;timestamp;temperature;humidity
8953;DHT22;4511;50.890;8.054;2023-05-10T00:00:26;13.20;99.90
8953;DHT22;4511;50.890;8.054;2023-05-10T00:02:53;13.20;99.90
8953;DHT22;4511;50.890;8.054;2023-05-10T00:05:20;13.10;99.90
8953;DHT22;4511;50.890;8.054;2023-05-10T00:07:47;13.00;99.90
8953;DHT22;4511;50.890;8.054;2023-05-10T00:10:13;13.00;99.90
8953;DHT22;4511;50.890;8.054;2023-05-10T00:12:40;13.00;99.90
8953;DHT22;4511;50.890;8.054;2023-05-10T00:15:09;13.10;99.90
8953;DHT22;4511;50.890;8.054;2023-05-10T00:17:36;13.10;99.90
8953;DHT22;4511;50.890;8.054;2023-05-10T00:20:03;13.10;99.90
8953;DHT22;4511;50.890;8.054;2023-05-10T00:22:30;13.10;99.90
8953;DHT22;4511;50.890;8.054;2023-05-10T00:24:57;13.10;99.90
8953;DHT22;4511;50.890;8.054;2023-05-10T00:27:24;13.20;99.90
8953;DHT22;4511;50.890;8.054;2023-05-10T00:29:50;13.30;99.90
8953;DHT22;4511;50.890;8.054;2023-05-10T00:32:19;13.30;99.90
8953;DHT22;4511;50.890;8.054;2023-05-10T00:34:46;13.40;99.90
8953;DHT22;4511;50.890;8.054;2023-05-10T00:37:12;13.30;99.90
8953;DHT22;4511;50.890;8.054;2023-05-10T00:39:39;13.30;99.90
8953;DHT22;4511;50.890;8.054;2023-05-10T00:42:06;13.30;99.90
8953;DHT22;4511;50.890;8.054;2023-05-10T00:44:32;13.40;99.90
8953;DHT22;4511;50.890;8.054;2023-05-10T00:46:59;13.30;99.90
8953;DHT22;4511;50.890;8.054;2023-05-10T00:49:28;13.40;99.90
8953;DHT22;4511;50.890;8.054;2023-05-10T00:51:55;13.30;99.90
8953;DHT22;4511;50.890;8.054;2023-05-10T00:54:22;13.30;99.90
8953;DHT22;4511;50.890;8.054;2023-05-10T00:56:49;13.30;99.90
8953;DHT22;4511;50.890;8.054;2023-05-10T00:59:16;13.30;99.90
8953;DHT22;4511;50.890;8.054;2023-05-10T01:01:43;13.30;99.90
8953;DHT22;4511;50.890;8.054;2023-05-10T01:04:11;13.30;99.90
8953;DHT22;4511;50.890;8.054;2023-05-10T01:06:40;13.30;99.90
8953;DHT22;4511;50.890;8.054;2023-05-10T01:09:07;13.30;99.90
8953;DHT22;4511;50.890;8.054;2023-05-10T01:11:34;13.30;99.90
8953;DHT22;4511;50.890;8.054;2023-05-10T01:14:02;13.20;99.90
8953;DHT22;4511;50.890;8.054;2023-05-10T01:16:30;13.10;99.90
8953;DHT22;4511;50.890;8.054;2023-05-10T01:18:58;13.10;99.90
8953;DHT22;4511;50.890;8.054;2023-05-10T01:21:31;13.20;99.90
8953;DHT22;4511;50.890;8.054;2023-05-10T01:24:38;13.20;99.90
8953;DHT22;4511;50.890;8.054;2023-05-10T01:27:24;13.20;99.90
8953;DHT22;4511;50.890;8.054;2023-05-10T01:30:08;13.30;99.90
8953;DHT22;4511;50.890;8.054;2023-05-10T01:32:41;13.30;99.90
8953;DHT22;4511;50.890;8.054;2023-05-10T01:35:17;13.20;99.90
8953;DHT22;4511;50.890;8.054;2023-05-10T01:37:49;13.20;99.90
8953;DHT22;4511;50.890;8.054;2023-05-10T01:40:21;13.30;99.90
8953;DHT22;4511;50.890;8.054;2023-05-10T01:42:53;13.30;99.90
8953;DHT22;4511;50.890;8.054;2023-05-10T01:45:27;13.30;99.90
8953;DHT22;4511;50.890;8.054;2023-05-10T01:48:03;13.20;99.90
8953;DHT22;4511;50.890;8.054;2023-05-10T01:50:32;13.10;99.90
8953;DHT22;4511;50.890;8.054;2023-05-10T01:53:01;13.10;99.90
8953;DHT22;4511;50.890;8.054;2023-05-10T01:55:32;13.10;99.90
8953;DHT22;4511;50.890;8.054;2023-05-10T01:58:03;13.30;99.90
8953;DHT22;4511;50.890;8.054;2023-05-10T02:00:32;13.10;99.90
8953;DHT22;4511;50.890;8.054;2023-05-10T02:03:05;13.20;99.90
8953;DHT22;4511;50.890;8.054;2023-05-10T02:05:33;13.30;99.90
8953;DHT22;4511;50.890;8.054;2023-05-10T02:08:04;13.30;99.90
8953;DHT22;4511;50.890;8.054;2023-05-10T02:10:32;13.30;99.90
8953;DHT22;4511;50.890;8.054;2023-05-10T02:13:03;13.40;99.90
8953;DHT22;4511;50.890;8.054;2023-05-10T02:15:32;13.40;99.90
8953;DHT22;4511;50.890;8.054;2023-05-10T02:18:02;13.40;99.90
8953;DHT22;4511;50.890;8.054;2023-05-10T02:20:31;13.30;99.90
8953;DHT22;4511;50.890;8.054;2023-05-10T02:22:59;13.30;99.90
8953;DHT22;4511;50.890;8.054;2023-05-10T02:25:30;13.40;99.90
8953;DHT22;4511;50.890;8.054;2023-05-10T02:27:59;13.30;99.90
8953;DHT22;4511;50.890;8.054;2023-05-10T02:30:27;13.30;99.90
8953;DHT22;4511;50.890;8.054;2023-05-10T02:32:54;13.30;99.90
8953;DHT22;4511;50.890;8.054;2023-05-10T02:35:25;13.20;99.90
8953;DHT22;4511;50.890;8.054;2023-05-10T02:37:53;13.30;99.90
8953;DHT22;4511;50.890;8.054;2023-05-10T02:40:21;13.30;99.90
8953;DHT22;4511;50.890;8.054;2023-05-10T02:42:52;13.30;99.90
8953;DHT22;4511;50.890;8.054;2023-05-10T02:45:23;13.30;99.90
8953;DHT22;4511;50.890;8.054;2023-05-10T02:47:52;13.20;99.90
8953;DHT22;4511;50.890;8.054;2023-05-10T02:50:19;13.30;99.90
8953;DHT22;4511;50.890;8.054;2023-05-10T02:52:50;13.30;99.90
8953;DHT22;4511;50.890;8.054;2023-05-10T02:55:27;13.20;99.90
8953;DHT22;4511;50.890;8.054;2023-05-10T02:58:00;13.20;99.90
8953;DHT22;4511;50.890;8.054;2023-05-10T03:00:27;13.20;99.90
8953;DHT22;4511;50.890;8.054;2023-05-10T03:02:54;13.30;99.90
8953;DHT22;4511;50.890;8.054;2023-05-10T03:05:21;13.20;99.90
8953;DHT22;4511;50.890;8.054;2023-05-10T03:07:50;13.10;99.90
8953;DHT22;4511;50.890;8.054;2023-05-10T03:10:18;13.20;99.90
8953;DHT22;4511;50.890;8.054;2023-05-10T03:12:58;13.10;99.90
8953;DHT22;4511;50.890;8.054;2023-05-10T03:15:32;13.20;99.90
8953;DHT22;4511;50.890;8.054;2023-05-10T03:18:06;13.00;99.90
8953;DHT22;4511;50.890;8.054;2023-05-10T03:20:36;13.10;99.90
8953;DHT22;4511;50.890;8.054;2023-05-10T03:23:11;13.10;99.90
8953;DHT22;4511;50.890;8.054;2023-05-10T03:25:39;13.10;99.90
8953;DHT22;4511;50.890;8.054;2023-05-10T03:28:06;13.10;99.90
8953;DHT22;4511;50.890;8.054;2023-05-10T03:30:33;13.10;99.90
8953;DHT22;4511;50.890;8.054;2023-05-10T03:33:04;13.20;99.90
8953;DHT22;4511;50.890;8.054;2023-05-10T03:35:32;13.10;99.90
8953;DHT22;4511;50.890;8.054;2023-05-10T03:37:58;13.10;99.90
8953;DHT22;4511;50.890;8.054;2023-05-10T03:40:27;13.10;99.90
8953;DHT22;4511;50.890;8.054;2023-05-10T03:42:56;13.10;99.90
8953;DHT22;4511;50.890;8.054;2023-05-10T03:45:23;13.20;99.90
8953;DHT22;4511;50.890;8.054;2023-05-10T03:47:50;13.20;99.90
8953;DHT22;4511;50.890;8.054;2023-05-10T03:50:18;13.20;99.90
8953;DHT22;4511;50.890;8.054;2023-05-10T03:52:45;13.20;99.90
8953;DHT22;4511;50.890;8.054;2023-05-10T03:55:12;13.10;99.90
8953;DHT22;4511;50.890;8.054;2023-05-10T03:57:40;13.10;99.90
8953;DHT22;4511;50.890;8.054;2023-05-10T04:00:07;13.10;99.90
8953;DHT22;4511;50.890;8.054;2023-05-10T04:02:35;13.10;99.90
8953;DHT22;4511;50.890;8.054;2023-05-10T04:05:01;13.10;99.90
8953;DHT22;4511;50.890;8.054;2023-05-10T04:07:28;13.10;99.90
8953;DHT22;4511;50.890;8.054;2023-05-10T04:09:55;13.00;99.90
8953;DHT22;4511;50.890;8.054;2023-05-10T04:12:21;13.10;99.90
8953;DHT22;4511;50.890;8.054;2023-05-10T04:14:51;13.00;99.90
8953;DHT22;4511;50.890;8.054;2023-05-10T04:17:17;13.00;99.90
8953;DHT22;4511;50.890;8.054;2023-05-10T04:19:44;13.00;99.90
8953;DHT22;4511;50.890;8.054;2023-05-10T04:22:11;13.10;99.90
8953;DHT22;4511;50.890;8.054;2023-05-10T04:24:38;13.20;99.90
8953;DHT22;4511;50.890;8.054;2023-05-10T04:27:04;13.20;99.90
8953;DHT22;4511;50.890;8.054;2023-05-10T04:29:31;13.20;99.90
8953;DHT22;4511;50.890;8.054;2023-05-10T04:32:00;13.20;99.90
8953;DHT22;4511;50.890;8.054;2023-05-10T04:34:26;13.10;99.90
8953;DHT22;4511;50.890;8.054;2023-05-10T04:36:54;13.20;99.90
8953;DHT22;4511;50.890;8.054;2023-05-10T04:39:21;13.10;99.90
8953;DHT22;4511;50.890;8.054;2023-05-10T04:41:47;13.20;99.90
8953;DHT22;4511;50.890;8.054;2023-05-10T04:44:16;13.20;99.90
8953;DHT22;4511;50.890;8.054;2023-05-10T04:46:43;13.10;99.90
8953;DHT22;4511;50.890;8.054;2023-05-10T04:49:11;13.20;99.90
8953;DHT22;4511;50.890;8.054;2023-05-10T04:51:38;13.10;99.90
8953;DHT22;4511;50.890;8.054;2023-05-10T04:54:05;13.10;99.90
8953;DHT22;4511;50.890;8.054;2023-05-10T04:56:32;13.00;99.90
8953;DHT22;4511;50.890;8.054;2023-05-10T04:59:00;13.00;99.90
8953;DHT22;4511;50.890;8.054;2023-05-10T05:01:26;13.00;99.90
8953;DHT22;4511;50.890;8.054;2023-05-10T05:03:53;13.00;99.90
8953;DHT22;4511;50.890;8.054;2023-05-10T05:06:21;12.90;99.90
8953;DHT22;4511;50.890;8.054;2023-05-10T05:08:50;13.20;99.90
8953;DHT22;4511;50.890;8.054;2023-05-10T05:11:17;13.00;99.90
8953;DHT22;4511;50.890;8.054;2023-05-10T05:13:44;12.90;99.90
8953;DHT22;4511;50.890;8.054;2023-05-10T05:16:11;13.00;99.90
8953;DHT22;4511;50.890;8.054;2023-05-10T05:18:37;13.10;99.90
8953;DHT22;4511;50.890;8.054;2023-05-10T05:21:13;13.20;99.90
8953;DHT22;4511;50.890;8.054;2023-05-10T05:23:41;13.20;99.90
8953;DHT22;4511;50.890;8.054;2023-05-10T05:26:08;13.30;99.90
8953;DHT22;4511;50.890;8.054;2023-05-10T05:28:36;13.40;99.90
8953;DHT22;4511;50.890;8.054;2023-05-10T05:31:03;13.40;99.90
8953;DHT22;4511;50.890;8.054;2023-05-10T05:33:29;13.50;99.90
8953;DHT22;4511;50.890;8.054;2023-05-10T05:35:56;13.40;99.90
8953;DHT22;4511;50.890;8.054;2023-05-10T05:38:23;13.40;99.90
8953;DHT22;4511;50.890;8.054;2023-05-10T05:40:51;13.40;99.90
8953;DHT22;4511;50.890;8.054;2023-05-10T05:43:18;13.40;99.90
8953;DHT22;4511;50.890;8.054;2023-05-10T05:45:45;13.40;99.90
8953;DHT22;4511;50.890;8.054;2023-05-10T05:48:11;13.30;99.90
8953;DHT22;4511;50.890;8.054;2023-05-10T05:50:38;13.30;99.90
8953;DHT22;4511;50.890;8.054;2023-05-10T05:53:05;13.20;99.90
8953;DHT22;4511;50.890;8.054;2023-05-10T05:55:32;13.30;99.90
8953;DHT22;4511;50.890;8.054;2023-05-10T05:58:00;13.40;99.90
8953;DHT22;4511;50.890;8.054;2023-05-10T06:00:33;13.40;99.90
8953;DHT22;4511;50.890;8.054;2023-05-10T06:03:00;13.50;99.90
8953;DHT22;4511;50.890;8.054;2023-05-10T06:05:27;13.50;99.90
8953;DHT22;4511;50.890;8.054;2023-05-10T06:07:53;13.50;99.90
8953;DHT22;4511;50.890;8.054;2023-05-10T06:10:20;13.60;99.90
8953;DHT22;4511;50.890;8.054;2023-05-10T06:12:47;13.70;99.90
8953;DHT22;4511;50.890;8.054;2023-05-10T06:15:15;13.70;99.90
8953;DHT22;4511;50.890;8.054;2023-05-10T06:17:42;13.70;99.90
8953;DHT22;4511;50.890;8.054;2023-05-10T06:20:10;13.70;99.90
8953;DHT22;4511;50.890;8.054;2023-05-10T06:22:37;13.60;99.90
8953;DHT22;4511;50.890;8.054;2023-05-10T06:25:05;13.40;99.90
8953;DHT22;4511;50.890;8.054;2023-05-10T06:27:32;13.40;99.90
8953;DHT22;4511;50.890;8.054;2023-05-10T06:29:59;13.50;99.90
8953;DHT22;4511;50.890;8.054;2023-05-10T06:32:27;13.40;99.90
8953;DHT22;4511;50.890;8.054;2023-05-10T06:34:54;13.40;99.90
8953;DHT22;4511;50.890;8.054;2023-05-10T06:37:20;13.60;99.90
8953;DHT22;4511;50.890;8.054;2023-05-10T06:39:47;13.60;99.90
8953;DHT22;4511;50.890;8.054;2023-05-10T06:42:14;13.60;99.90
8953;DHT22;4511;50.890;8.054;2023-05-10T06:44:40;13.60;99.90
8953;DHT22;4511;50.890;8.054;2023-05-10T06:47:07;13.70;99.90
8953;DHT22;4511;50.890;8.054;2023-05-10T06:49:35;13.80;99.90
8953;DHT22;4511;50.890;8.054;2023-05-10T06:52:02;13.90;99.90
8953;DHT22;4511;50.890;8.054;2023-05-10T06:54:29;13.70;99.90
8953;DHT22;4511;50.890;8.054;2023-05-10T06:56:56;13.80;99.90
8953;DHT22;4511;50.890;8.054;2023-05-10T06:59:23;13.90;99.90
8953;DHT22;4511;50.890;8.054;2023-05-10T07:01:50;13.90;99.90
8953;DHT22;4511;50.890;8.054;2023-05-10T07:04:16;14.10;99.90
8953;DHT22;4511;50.890;8.054;2023-05-10T07:06:45;14.20;99.90
8953;DHT22;4511;50.890;8.054;2023-05-10T07:09:12;14.30;99.90
8953;DHT22;4511;50.890;8.054;2023-05-10T07:11:39;14.40;99.90
8953;DHT22;4511;50.890;8.054;2023-05-10T07:14:06;14.10;99.90
8953;DHT22;4511;50.890;8.054;2023-05-10T07:16:33;14.00;99.90
8953;DHT22;4511;50.890;8.054;2023-05-10T07:19:07;14.10;99.90
8953;DHT22;4511;50.890;8.054;2023-05-10T07:21:34;14.10;99.90
8953;DHT22;4511;50.890;8.054;2023-05-10T07:24:09;14.00;99.90
8953;DHT22;4511;50.890;8.054;2023-05-10T07:26:43;13.90;99.90
8953;DHT22;4511;50.890;8.054;2023-05-10T07:29:10;13.80;99.90
8953;DHT22;4511;50.890;8.054;2023-05-10T07:31:37;13.90;99.90
8953;DHT22;4511;50.890;8.054;2023-05-10T07:34:04;13.90;99.90
8953;DHT22;4511;50.890;8.054;2023-05-10T07:36:30;14.00;99.90
8953;DHT22;4511;50.890;8.054;2023-05-10T07:38:57;13.90;99.90
8953;DHT22;4511;50.890;8.054;2023-05-10T07:41:26;13.90;99.90
8953;DHT22;4511;50.890;8.054;2023-05-10T07:43:52;14.00;99.90
8953;DHT22;4511;50.890;8.054;2023-05-10T07:46:19;13.90;99.90
8953;DHT22;4511;50.890;8.054;2023-05-10T07:48:46;13.90;99.90
8953;DHT22;4511;50.890;8.054;2023-05-10T07:51:12;13.80;99.90
8953;DHT22;4511;50.890;8.054;2023-05-10T07:53:39;13.80;99.90
8953;DHT22;4511;50.890;8.054;2023-05-10T07:56:21;13.70;99.90
8953;DHT22;4511;50.890;8.054;2023-05-10T07:58:49;13.90;99.90
8953;DHT22;4511;50.890;8.054;2023-05-10T08:01:16;14.00;99.90
8953;DHT22;4511;50.890;8.054;2023-05-10T08:03:43;14.10;99.90
8953;DHT22;4511;50.890;8.054;2023-05-10T08:06:09;14.10;99.90
8953;DHT22;4511;50.890;8.054;2023-05-10T08:08:36;14.20;99.90
8953;DHT22;4511;50.890;8.054;2023-05-10T08:11:03;14.20;99.90
8953;DHT22;4511;50.890;8.054;2023-05-10T08:13:30;14.30;99.90
8953;DHT22;4511;50.890;8.054;2023-05-10T08:15:58;14.30;99.90
8953;DHT22;4511;50.890;8.054;2023-05-10T08:18:26;13.90;99.90
8953;DHT22;4511;50.890;8.054;2023-05-10T08:20:52;13.90;99.90
8953;DHT22;4511;50.890;8.054;2023-05-10T08:23:19;13.90;99.90
8953;DHT22;4511;50.890;8.054;2023-05-10T08:25:46;13.70;99.90
8953;DHT22;4511;50.890;8.054;2023-05-10T08:28:13;13.80;99.90
8953;DHT22;4511;50.890;8.054;2023-05-10T08:30:40;13.80;99.90
8953;DHT22;4511;50.890;8.054;2023-05-10T08:33:08;13.80;99.90
8953;DHT22;4511;50.890;8.054;2023-05-10T08:35:35;13.90;99.90
8953;DHT22;4511;50.890;8.054;2023-05-10T08:38:01;13.90;99.90
8953;DHT22;4511;50.890;8.054;2023-05-10T08:40:28;13.60;99.90
8953;DHT22;4511;50.890;8.054;2023-05-10T08:42:58;13.70;99.90
8953;DHT22;4511;50.890;8.054;2023-05-10T08:45:27;13.90;99.90
8953;DHT22;4511;50.890;8.054;2023-05-10T08:47:58;14.10;99.90
8953;DHT22;4511;50.890;8.054;2023-05-10T08:50:27;14.10;99.90
8953;DHT22;4511;50.890;8.054;2023-05-10T08:52:59;14.10;99.90
8953;DHT22;4511;50.890;8.054;2023-05-10T08:55:26;14.10;99.90
8953;DHT22;4511;50.890;8.054;2023-05-10T08:57:53;13.80;99.90
8953;DHT22;4511;50.890;8.054;2023-05-10T09:00:20;14.00;99.90
8953;DHT22;4511;50.890;8.054;2023-05-10T09:02:49;14.20;99.90
8953;DHT22;4511;50.890;8.054;2023-05-10T09:05:16;14.10;99.90
8953;DHT22;4511;50.890;8.054;2023-05-10T09:07:44;14.10;99.90
8953;DHT22;4511;50.890;8.054;2023-05-10T09:10:11;14.10;99.90
8953;DHT22;4511;50.890;8.054;2023-05-10T09:12:40;13.90;99.90
8953;DHT22;4511;50.890;8.054;2023-05-10T09:15:07;13.90;99.90
8953;DHT22;4511;50.890;8.054;2023-05-10T09:17:36;13.90;99.90
8953;DHT22;4511;50.890;8.054;2023-05-10T09:20:04;13.90;99.90
8953;DHT22;4511;50.890;8.054;2023-05-10T09:22:31;14.10;99.90
8953;DHT22;4511;50.890;8.054;2023-05-10T09:25:11;14.10;99.90
8953;DHT22;4511;50.890;8.054;2023-05-10T09:27:38;14.20;99.90
8953;DHT22;4511;50.890;8.054;2023-05-10T09:30:06;14.40;99.90
8953;DHT22;4511;50.890;8.054;2023-05-10T09:32:37;14.40;99.90
8953;DHT22;4511;50.890;8.054;2023-05-10T09:35:08;14.50;99.90
8953;DHT22;4511;50.890;8.054;2023-05-10T09:37:35;14.60;99.90
8953;DHT22;4511;50.890;8.054;2023-05-10T09:40:05;14.30;99.90
8953;DHT22;4511;50.890;8.054;2023-05-10T09:42:34;14.30;99.90
8953;DHT22;4511;50.890;8.054;2023-05-10T09:45:02;14.40;99.90
8953;DHT22;4511;50.890;8.054;2023-05-10T09:47:32;14.40;99.90
8953;DHT22;4511;50.890;8.054;2023-05-10T09:49:59;14.40;99.90
8953;DHT22;4511;50.890;8.054;2023-05-10T09:52:29;14.40;99.90
8953;DHT22;4511;50.890;8.054;2023-05-10T09:54:56;14.60;99.90
8953;DHT22;4511;50.890;8.054;2023-05-10T09:57:24;14.50;99.90
8953;DHT22;4511;50.890;8.054;2023-05-10T09:59:52;14.40;99.90
8953;DHT22;4511;50.890;8.054;2023-05-10T10:02:20;14.30;99.90
8953;DHT22;4511;50.890;8.054;2023-05-10T10:04:49;14.30;99.90
8953;DHT22;4511;50.890;8.054;2023-05-10T10:07:22;14.40;99.90
8953;DHT22;4511;50.890;8.054;2023-05-10T10:09:50;14.60;99.90
8953;DHT22;4511;50.890;8.054;2023-05-10T10:12:17;14.80;99.90
8953;DHT22;4511;50.890;8.054;2023-05-10T10:14:46;15.00;99.90
8953;DHT22;4511;50.890;8.054;2023-05-10T10:17:14;15.10;99.90
8953;DHT22;4511;50.890;8.054;2023-05-10T10:19:41;15.00;99.90
8953;DHT22;4511;50.890;8.054;2023-05-10T10:22:08;14.80;99.90
8953;DHT22;4511;50.890;8.054;2023-05-10T10:24:37;14.70;99.90
8953;DHT22;4511;50.890;8.054;2023-05-10T10:27:12;14.60;99.90
8953;DHT22;4511;50.890;8.054;2023-05-10T10:29:55;14.60;99.90
8953;DHT22;4511;50.890;8.054;2023-05-10T10:32:35;14.20;99.90
8953;DHT22;4511;50.890;8.054;2023-05-10T10:35:05;14.10;99.90
8953;DHT22;4511;50.890;8.054;2023-05-10T10:37:44;14.30;99.90
8953;DHT22;4511;50.890;8.054;2023-05-10T10:40:27;14.40;99.90
8953;DHT22;4511;50.890;8.054;2023-05-10T10:42:55;14.40;99.90
8953;DHT22;4511;50.890;8.054;2023-05-10T10:45:23;14.40;99.90
8953;DHT22;4511;50.890;8.054;2023-05-10T10:48:21;14.50;99.90
8953;DHT22;4511;50.890;8.054;2023-05-10T10:50:56;14.60;99.90
8953;DHT22;4511;50.890;8.054;2023-05-10T10:53:26;14.80;99.90
8953;DHT22;4511;50.890;8.054;2023-05-10T10:56:04;14.90;99.90
8953;DHT22;4511;50.890;8.054;2023-05-10T10:58:32;15.30;99.90
8953;DHT22;4511;50.890;8.054;2023-05-10T11:01:10;15.20;99.90
8953;DHT22;4511;50.890;8.054;2023-05-10T11:03:38;15.60;99.90
8953;DHT22;4511;50.890;8.054;2023-05-10T11:06:05;15.90;99.90
8953;DHT22;4511;50.890;8.054;2023-05-10T11:08:35;16.10;99.90
8953;DHT22;4511;50.890;8.054;2023-05-10T11:11:07;16.20;99.90
8953;DHT22;4511;50.890;8.054;2023-05-10T11:13:38;16.10;99.90
8953;DHT22;4511;50.890;8.054;2023-05-10T11:16:16;15.90;99.90
8953;DHT22;4511;50.890;8.054;2023-05-10T11:18:54;15.70;99.90
8953;DHT22;4511;50.890;8.054;2023-05-10T11:21:23;15.30;99.90
8953;DHT22;4511;50.890;8.054;2023-05-10T11:23:51;15.00;99.90
8953;DHT22;4511;50.890;8.054;2023-05-10T11:26:21;14.70;99.90
8953;DHT22;4511;50.890;8.054;2023-05-10T11:28:52;14.80;99.90
8953;DHT22;4511;50.890;8.054;2023-05-10T11:31:21;15.10;99.90
8953;DHT22;4511;50.890;8.054;2023-05-10T11:33:49;15.50;99.90
8953;DHT22;4511;50.890;8.054;2023-05-10T11:36:19;15.80;99.90
8953;DHT22;4511;50.890;8.054;2023-05-10T11:38:47;15.90;99.90
8953;DHT22;4511;50.890;8.054;2023-05-10T11:41:16;15.50;99.90
8953;DHT22;4511;50.890;8.054;2023-05-10T11:43:46;15.10;99.90
8953;DHT22;4511;50.890;8.054;2023-05-10T11:46:14;14.70;99.90
8953;DHT22;4511;50.890;8.054;2023-05-10T11:48:42;14.30;99.90
8953;DHT22;4511;50.890;8.054;2023-05-10T11:51:09;14.20;99.90
8953;DHT22;4511;50.890;8.054;2023-05-10T11:53:38;14.00;99.90
8953;DHT22;4511;50.890;8.054;2023-05-10T11:56:06;14.00;99.90
8953;DHT22;4511;50.890;8.054;2023-05-10T11:58:33;14.10;99.90
8953;DHT22;4511;50.890;8.054;2023-05-10T12:01:01;13.90;99.90
8953;DHT22;4511;50.890;8.054;2023-05-10T12:03:29;13.90;99.90
8953;DHT22;4511;50.890;8.054;2023-05-10T12:05:56;14.00;99.90
8953;DHT22;4511;50.890;8.054;2023-05-10T12:08:24;13.90;99.90
8953;DHT22;4511;50.890;8.054;2023-05-10T12:10:54;14.00;99.90
8953;DHT22;4511;50.890;8.054;2023-05-10T12:13:30;13.70;99.90
8953;DHT22;4511;50.890;8.054;2023-05-10T12:15:57;13.70;99.90
8953;DHT22;4511;50.890;8.054;2023-05-10T12:18:25;13.80;99.90
8953;DHT22;4511;50.890;8.054;2023-05-10T12:20:52;13.70;99.90
8953;DHT22;4511;50.890;8.054;2023-05-10T12:23:20;13.70;99.90
8953;DHT22;4511;50.890;8.054;2023-05-10T12:25:46;13.90;99.90
8953;DHT22;4511;50.890;8.054;2023-05-10T12:28:15;14.20;99.90
8953;DHT22;4511;50.890;8.054;2023-05-10T12:30:45;14.30;99.90
8953;DHT22;4511;50.890;8.054;2023-05-10T12:33:13;14.40;99.90
8953;DHT22;4511;50.890;8.054;2023-05-10T12:35:46;14.60;99.90
8953;DHT22;4511;50.890;8.054;2023-05-10T12:38:26;14.60;99.90
8953;DHT22;4511;50.890;8.054;2023-05-10T12:40:54;14.80;99.90
8953;DHT22;4511;50.890;8.054;2023-05-10T12:43:23;15.00;99.90
8953;DHT22;4511;50.890;8.054;2023-05-10T12:45:50;15.10;99.90
8953;DHT22;4511;50.890;8.054;2023-05-10T12:48:16;15.20;99.90
8953;DHT22;4511;50.890;8.054;2023-05-10T12:50:43;15.30;99.90
8953;DHT22;4511;50.890;8.054;2023-05-10T12:53:10;15.20;99.90
8953;DHT22;4511;50.890;8.054;2023-05-10T12:55:38;15.20;99.90
8953;DHT22;4511;50.890;8.054;2023-05-10T12:58:05;15.20;99.90
8953;DHT22;4511;50.890;8.054;2023-05-10T13:00:33;15.30;99.90
8953;DHT22;4511;50.890;8.054;2023-05-10T13:03:00;15.30;99.90
8953;DHT22;4511;50.890;8.054;2023-05-10T13:05:27;15.30;99.90
8953;DHT22;4511;50.890;8.054;2023-05-10T13:07:53;15.20;99.90
8953;DHT22;4511;50.890;8.054;2023-05-10T13:10:20;15.30;99.90
8953;DHT22;4511;50.890;8.054;2023-05-10T13:12:49;15.40;99.90
8953;DHT22;4511;50.890;8.054;2023-05-10T13:15:15;15.00;99.90
8953;DHT22;4511;50.890;8.054;2023-05-10T13:17:44;15.10;99.90
8953;DHT22;4511;50.890;8.054;2023-05-10T13:20:11;15.30;99.90
8953;DHT22;4511;50.890;8.054;2023-05-10T13:22:38;15.40;99.90
8953;DHT22;4511;50.890;8.054;2023-05-10T13:25:05;15.40;99.90
8953;DHT22;4511;50.890;8.054;2023-05-10T13:27:32;15.30;99.90
8953;DHT22;4511;50.890;8.054;2023-05-10T13:29:58;15.40;99.90
8953;DHT22;4511;50.890;8.054;2023-05-10T13:32:25;15.40;99.90
8953;DHT22;4511;50.890;8.054;2023-05-10T13:34:54;15.40;99.90
8953;DHT22;4511;50.890;8.054;2023-05-10T13:37:21;15.30;99.90
8953;DHT22;4511;50.890;8.054;2023-05-10T13:42:33;14.90;99.90
8953;DHT22;4511;50.890;8.054;2023-05-10T13:45:00;15.10;99.90
8953;DHT22;4511;50.890;8.054;2023-05-10T13:47:27;15.20;99.90
8953;DHT22;4511;50.890;8.054;2023-05-10T13:49:55;15.50;99.90
8953;DHT22;4511;50.890;8.054;2023-05-10T13:52:22;15.40;99.90
8953;DHT22;4511;50.890;8.054;2023-05-10T13:54:49;15.40;99.90
8953;DHT22;4511;50.890;8.054;2023-05-10T13:57:17;15.40;99.90
8953;DHT22;4511;50.890;8.054;2023-05-10T13:59:44;15.20;99.90
8953;DHT22;4511;50.890;8.054;2023-05-10T14:02:11;15.30;99.90
8953;DHT22;4511;50.890;8.054;2023-05-10T14:04:40;15.40;99.90
8953;DHT22;4511;50.890;8.054;2023-05-10T14:07:08;15.50;99.90
8953;DHT22;4511;50.890;8.054;2023-05-10T14:09:34;15.60;99.90
8953;DHT22;4511;50.890;8.054;2023-05-10T14:12:01;15.70;99.90
8953;DHT22;4511;50.890;8.054;2023-05-10T14:14:28;15.80;99.90
8953;DHT22;4511;50.890;8.054;2023-05-10T14:16:54;15.70;99.90
8953;DHT22;4511;50.890;8.054;2023-05-10T14:19:21;15.70;99.90
8953;DHT22;4511;50.890;8.054;2023-05-10T14:21:48;15.60;99.90
8953;DHT22;4511;50.890;8.054;2023-05-10T14:24:16;15.70;99.90
8953;DHT22;4511;50.890;8.054;2023-05-10T14:26:43;15.60;99.90
8953;DHT22;4511;50.890;8.054;2023-05-10T14:29:10;15.40;99.90
8953;DHT22;4511;50.890;8.054;2023-05-10T14:31:36;15.50;99.90
8953;DHT22;4511;50.890;8.054;2023-05-10T14:34:03;15.60;99.90
8953;DHT22;4511;50.890;8.054;2023-05-10T14:36:31;15.80;99.90
8953;DHT22;4511;50.890;8.054;2023-05-10T14:38:57;15.80;99.90
8953;DHT22;4511;50.890;8.054;2023-05-10T14:41:25;15.90;99.90
8953;DHT22;4511;50.890;8.054;2023-05-10T14:43:52;16.00;99.90
8953;DHT22;4511;50.890;8.054;2023-05-10T14:46:19;16.10;99.90
8953;DHT22;4511;50.890;8.054;2023-05-10T14:48:46;16.00;99.90
8953;DHT22;4511;50.890;8.054;2023-05-10T14:51:13;16.10;99.90
8953;DHT22;4511;50.890;8.054;2023-05-10T14:53:40;16.10;99.90
8953;DHT22;4511;50.890;8.054;2023-05-10T14:56:07;16.30;99.90
8953;DHT22;4511;50.890;8.054;2023-05-10T14:58:35;16.40;99.90
8953;DHT22;4511;50.890;8.054;2023-05-10T15:01:02;16.50;99.90
8953;DHT22;4511;50.890;8.054;2023-05-10T15:03:29;16.60;99.90
8953;DHT22;4511;50.890;8.054;2023-05-10T15:05:55;16.50;99.90
8953;DHT22;4511;50.890;8.054;2023-05-10T15:08:23;16.50;99.90
8953;DHT22;4511;50.890;8.054;2023-05-10T15:10:50;16.40;99.90
8953;DHT22;4511;50.890;8.054;2023-05-10T15:13:17;16.60;99.90
8953;DHT22;4511;50.890;8.054;2023-05-10T15:15:45;16.80;99.90
8953;DHT22;4511;50.890;8.054;2023-05-10T15:18:12;17.20;99.90
8953;DHT22;4511;50.890;8.054;2023-05-10T15:20:38;17.20;99.90
8953;DHT22;4511;50.890;8.054;2023-05-10T15:23:05;17.10;99.90
8953;DHT22;4511;50.890;8.054;2023-05-10T15:25:32;17.10;99.90
8953;DHT22;4511;50.890;8.054;2023-05-10T15:28:00;17.30;99.90
8953;DHT22;4511;50.890;8.054;2023-05-10T15:30:27;17.60;99.90
8953;DHT22;4511;50.890;8.054;2023-05-10T15:32:55;17.80;99.90
8953;DHT22;4511;50.890;8.054;2023-05-10T15:35:22;17.00;99.90
8953;DHT22;4511;50.890;8.054;2023-05-10T15:37:49;16.60;99.90
8953;DHT22;4511;50.890;8.054;2023-05-10T15:40:15;16.40;99.90
8953;DHT22;4511;50.890;8.054;2023-05-10T15:42:42;16.30;99.90
8953;DHT22;4511;50.890;8.054;2023-05-10T15:45:10;16.30;99.90
8953;DHT22;4511;50.890;8.054;2023-05-10T15:47:37;16.30;99.90
8953;DHT22;4511;50.890;8.054;2023-05-10T15:50:07;16.20;99.90
8953;DHT22;4511;50.890;8.054;2023-05-10T15:52:34;16.10;99.90
8953;DHT22;4511;50.890;8.054;2023-05-10T15:55:01;16.10;99.90
8953;DHT22;4511;50.890;8.054;2023-05-10T15:57:28;16.00;99.90
8953;DHT22;4511;50.890;8.054;2023-05-10T15:59:55;15.70;99.90
8953;DHT22;4511;50.890;8.054;2023-05-10T16:02:22;15.40;99.90
8953;DHT22;4511;50.890;8.054;2023-05-10T16:04:49;15.30;99.90
8953;DHT22;4511;50.890;8.054;2023-05-10T16:07:17;15.20;99.90
8953;DHT22;4511;50.890;8.054;2023-05-10T16:09:44;15.20;99.90
8953;DHT22;4511;50.890;8.054;2023-05-10T16:12:11;15.20;99.90